Time;durP1;ratioP1;P1;durP2;ratioP2;P2;SDS_P1;SDS_P2;PMS_P1;PMS_P2;Temp;Humidity;BMP_temperature;BMP_pressure;BME280_temperature;BME280_humidity;BME280_pressure;Samples;Min_cycle;Max_cycle;Signal;HPM_P1;HPM_P2
2021/03/14 00:00:06;;;;;;;1.75;1.20;;;;;;;4.00;83.53;97721.72;6209411;23;20028;-69
2021/03/14 00:02:32;;;;;;;2.38;0.85;;;;;;;3.87;84.13;97718.44;6209312;23;20004;-69
2021/03/14 00:04:57;;;;;;;1.48;0.90;;;;;;;4.13;83.22;97720.75;6209829;23;20074;-69
2021/03/14 00:07:22;;;;;;;1.73;0.80;;;;;;;4.20;83.20;97722.38;6209532;23;20008;-69
2021/03/14 00:09:48;;;;;;;3.47;0.80;;;;;;;4.09;83.20;97721.66;6209701;23;20008;-69
2021/03/14 00:12:13;;;;;;;1.13;0.63;;;;;;;4.13;82.21;97718.19;6209342;23;20039;-69
2021/03/14 00:14:38;;;;;;;2.25;0.68;;;;;;;3.93;82.04;97720.94;6211034;23;20043;-69
2021/03/14 00:17:04;;;;;;;1.00;0.75;;;;;;;4.00;83.21;97727.69;6211305;23;20510;-69
2021/03/14 00:19:29;;;;;;;1.27;0.77;;;;;;;3.88;82.14;97722.69;6211520;23;20436;-69
2021/03/14 00:21:54;;;;;;;2.45;2.20;;;;;;;3.92;81.21;97731.22;6211282;23;20035;-69
2021/03/14 00:24:20;;;;;;;0.95;0.80;;;;;;;3.99;81.97;97735.41;6211467;23;20008;-69
2021/03/14 00:26:45;;;;;;;1.38;0.73;;;;;;;4.06;81.93;97721.66;6211506;23;20332;-69
2021/03/14 00:29:10;;;;;;;1.27;0.68;;;;;;;4.18;81.24;97711.31;6211483;23;20008;-69
2021/03/14 00:31:36;;;;;;;7.68;4.72;;;;;;;4.15;82.67;97711.34;6211102;23;20388;-71
2021/03/14 00:34:02;;;;;;;0.95;0.95;;;;;;;4.13;81.98;97725.88;6211156;23;20062;-69
2021/03/14 00:36:27;;;;;;;1.45;0.80;;;;;;;4.10;82.63;97751.53;6211381;23;20031;-69
2021/03/14 00:38:53;;;;;;;1.40;0.90;;;;;;;4.00;84.59;97748.19;6211271;23;20004;-69
2021/03/14 00:41:18;;;;;;;1.63;0.70;;;;;;;3.97;85.84;97747.41;6211043;23;20052;-69
2021/03/14 00:43:43;;;;;;;1.80;0.70;;;;;;;3.73;86.65;97751.84;6211211;23;20011;-69
2021/03/14 00:46:10;;;;;;;1.27;0.88;;;;;;;3.87;87.08;97754.31;6211129;23;20020;-69
2021/03/14 00:48:35;;;;;;;1.48;0.80;;;;;;;3.87;87.42;97759.44;6210754;23;20440;-69
2021/03/14 00:51:01;;;;;;;2.00;1.00;;;;;;;3.79;88.32;97774.84;6211018;23;20001;-69
2021/03/14 00:53:26;;;;;;;1.75;0.93;;;;;;;3.61;88.14;97769.84;6211053;23;20112;-69
2021/03/14 00:55:51;;;;;;;2.28;1.00;;;;;;;3.59;88.23;97772.44;6211109;23;20009;-69
2021/03/14 00:58:17;;;;;;;1.95;0.82;;;;;;;3.53;87.75;97771.59;6211053;23;20088;-69
2021/03/14 08:02:52;;;;;;;3.40;1.50;;;;;;;5.13;71.17;98362.38;6209724;23;20036;-73
2021/03/14 08:05:18;;;;;;;8.68;1.80;;;;;;;5.26;71.07;98364.03;6209607;23;20059;-73
2021/03/14 08:07:45;;;;;;;4.65;1.25;;;;;;;5.27;71.17;98373.47;6209446;23;20020;-73
2021/03/14 08:10:32;;;;;;;2.35;1.63;;;;;;;5.15;71.03;98376.91;6208926;23;20008;-73
2021/03/14 08:12:58;;;;;;;7.53;1.95;;;;;;;4.81;72.27;98381.28;6178363;23;20001;-73
2021/03/14 08:15:25;;;;;;;3.42;1.83;;;;;;;4.48;70.33;98381.28;6186519;22;20016;-73
2021/03/14 08:17:53;;;;;;;6.25;1.58;;;;;;;4.45;71.59;98387.31;6209604;23;20008;-73
2021/03/14 08:20:39;;;;;;;3.88;1.80;;;;;;;4.51;70.47;98389.00;6209611;23;20035;-73
2021/03/14 08:23:05;;;;;;;3.30;1.60;;;;;;;4.81;71.19;98388.97;6209582;23;20012;-73
2021/03/14 08:25:38;;;;;;;4.38;1.48;;;;;;;5.16;69.35;98393.16;6200987;23;20015;-73
2021/03/14 08:28:22;;;;;;;8.40;1.60;;;;;;;5.42;69.46;98400.81;6179464;23;20375;-73
2021/03/14 08:30:52;;;;;;;6.70;1.67;;;;;;;5.58;67.95;98397.31;6179706;23;20004;-73
2021/03/14 08:33:17;;;;;;;3.50;1.20;;;;;;;5.79;68.27;98393.78;6179489;23;20036;-74
2021/03/14 08:35:52;;;;;;;5.55;1.48;;;;;;;5.79;65.71;98406.63;6180942;23;20435;-73
2021/03/14 08:38:24;;;;;;;6.40;1.20;;;;;;;5.59;66.90;98408.44;6181050;23;20040;-73
2021/03/14 08:40:49;;;;;;;3.65;1.20;;;;;;;5.78;66.06;98422.06;6181291;23;20460;-73
2021/03/14 08:43:41;;;;;;;19.80;7.25;;;;;;;5.74;66.35;98421.22;6178396;23;20033;-74
2021/03/14 08:46:06;;;;;;;4.57;1.48;;;;;;;6.07;65.57;98411.66;6177960;23;20005;-74
2021/03/14 08:48:32;;;;;;;3.88;1.55;;;;;;;6.76;62.60;98413.72;6177491;23;20001;-74
2021/03/14 08:50:57;;;;;;;4.15;1.58;;;;;;;8.15;57.27;98407.00;6177849;23;20000;-74
2021/03/14 08:53:24;;;;;;;1.92;0.90;;;;;;;8.38;57.88;98412.69;6177783;23;20004;-74
2021/03/14 08:55:49;;;;;;;4.95;1.20;;;;;;;8.20;55.34;98418.94;6177924;23;20032;-74
2021/03/14 08:58:15;;;;;;;2.33;0.98;;;;;;;7.59;57.50;98426.63;6177710;23;20005;-73
2021/03/14 09:00:41;;;;;;;3.47;1.00;;;;;;;7.52;58.23;98432.72;6177779;23;20020;-74
2021/03/14 09:03:06;;;;;;;3.28;1.10;;;;;;;7.30;58.55;98432.97;6177761;23;20053;-73
2021/03/14 09:06:22;;;;;;;11.07;1.80;;;;;;;7.20;59.22;98434.81;6174787;23;20339;-74
2021/03/14 09:09:01;;;;;;;5.97;1.00;;;;;;;6.69;61.41;98431.81;6125182;23;20009;-73
2021/03/14 09:11:48;;;;;;;5.25;1.50;;;;;;;5.94;62.23;98441.72;6177511;23;20028;-73
2021/03/14 09:14:30;;;;;;;2.88;1.13;;;;;;;5.82;63.31;98441.78;6180941;23;20388;-74
2021/03/14 09:17:08;;;;;;;2.38;1.25;;;;;;;5.46;64.81;98437.59;6180446;23;20074;-74
2021/03/14 09:19:40;;;;;;;4.95;1.63;;;;;;;5.23;64.54;98443.69;6180527;23;20036;-74
2021/03/14 09:22:12;;;;;;;1.02;0.90;;;;;;;5.16;65.51;98444.53;6180498;23;20424;-74
2021/03/14 09:24:41;;;;;;;5.93;1.70;;;;;;;5.18;66.07;98447.97;6180575;23;20004;-74
2021/03/14 09:27:11;;;;;;;4.10;1.30;;;;;;;5.30;66.36;98452.22;6180139;23;20008;-74
2021/03/14 09:29:37;;;;;;;;;;;;;;;5.25;65.11;98454.78;6181541;23;20221;-74
2021/03/14 09:32:12;;;;;;;3.75;1.23;;;;;;;5.27;64.98;98460.81;6180450;23;20350;-74
2021/03/14 09:34:38;;;;;;;3.83;1.13;;;;;;;5.53;64.64;98467.59;6180038;23;20005;-74
2021/03/14 09:37:03;;;;;;;16.65;5.90;;;;;;;5.74;64.15;98457.22;6180381;23;20012;-74
2021/03/14 09:39:28;;;;;;;2.67;1.35;;;;;;;5.83;63.11;98457.19;6180785;23;20008;-75
2021/03/14 09:41:54;;;;;;;5.57;1.70;;;;;;;6.00;62.76;98462.28;6180414;23;20005;-74
2021/03/14 09:44:19;;;;;;;1.88;1.27;;;;;;;6.10;61.02;98457.97;6180677;23;20063;-74
2021/03/14 09:46:52;;;;;;;2.13;0.93;;;;;;;6.01;60.29;98445.16;6180250;23;20004;-74
2021/03/14 09:49:17;;;;;;;2.20;1.13;;;;;;;6.03;61.59;98451.13;6180563;23;20076;-74
2021/03/14 09:51:43;;;;;;;4.38;1.20;;;;;;;5.68;62.47;98454.69;6180279;23;20426;-74
2021/03/14 09:54:09;;;;;;;2.55;1.08;;;;;;;5.59;61.20;98454.69;6154276;23;20013;-74
2021/03/14 09:56:35;;;;;;;9.05;1.30;;;;;;;5.67;61.37;98448.69;6180393;23;20009;-74
2021/03/14 09:59:02;;;;;;;2.33;1.20;;;;;;;5.96;61.00;98449.47;6175640;23;20140;-74
2021/03/14 10:01:27;;;;;;;4.57;1.45;;;;;;;6.11;60.81;98444.22;6175754;23;20008;-74
2021/03/14 10:03:58;;;;;;;5.95;1.83;;;;;;;6.35;60.26;98438.94;6173864;23;20313;-74
2021/03/14 10:06:23;;;;;;;6.18;1.90;;;;;;;6.51;60.23;98434.53;6171103;23;20051;-74
2021/03/14 10:08:48;;;;;;;2.72;1.42;;;;;;;6.85;59.37;98424.81;6171934;23;20079;-74
2021/03/14 10:11:17;;;;;;;7.38;1.50;;;;;;;7.09;57.72;98422.88;6171156;23;20009;-74
2021/03/14 10:13:47;;;;;;;6.30;1.90;;;;;;;7.03;58.04;98430.66;6167680;23;20016;-74
2021/03/14 10:16:14;;;;;;;4.50;2.40;;;;;;;6.77;58.62;98423.16;6167649;23;20436;-73
2021/03/14 10:18:41;;;;;;;4.47;1.30;;;;;;;6.97;58.85;98417.84;6168830;23;20076;-74
2021/03/14 10:21:20;;;;;;;5.78;1.55;;;;;;;6.95;58.63;98426.44;6168603;23;20001;-74
2021/03/14 10:23:46;;;;;;;5.23;1.40;;;;;;;6.40;58.06;98416.59;6168618;23;20009;-73
2021/03/14 10:26:13;;;;;;;3.35;1.67;;;;;;;6.21;59.40;98420.16;6168049;23;20363;-73
2021/03/14 10:28:40;;;;;;;7.57;2.20;;;;;;;6.11;60.62;98428.78;6171719;23;20009;-74
2021/03/14 10:31:08;;;;;;;4.70;1.27;;;;;;;6.03;61.22;98430.53;6174006;23;20024;-73
2021/03/14 10:33:35;;;;;;;3.42;1.30;;;;;;;6.11;61.01;98424.50;6175645;23;20040;-74
2021/03/14 10:36:09;;;;;;;6.13;1.75;;;;;;;6.04;61.17;98434.81;6179665;23;20083;-74
2021/03/14 10:38:44;;;;;;;1.58;1.40;;;;;;;6.15;62.57;98438.22;6180058;23;20614;-74
2021/03/14 10:41:14;;;;;;;6.13;2.35;;;;;;;6.06;61.94;98435.69;6179852;23;20071;-74
2021/03/14 10:43:56;;;;;;;3.80;1.27;;;;;;;5.73;65.40;98447.78;6176468;23;20063;-73
2021/03/14 10:46:34;;;;;;;4.75;1.77;;;;;;;5.85;64.36;98442.63;6149897;23;20710;-73
2021/03/14 10:49:04;;;;;;;9.50;3.60;;;;;;;6.02;64.50;98429.69;6175507;23;20129;-73
2021/03/14 10:51:32;;;;;;;8.45;2.75;;;;;;;6.41;65.09;98433.72;6174745;23;20047;-73
2021/03/14 10:54:09;;;;;;;13.70;5.15;;;;;;;6.37;64.43;98437.19;6175458;23;20009;-73
2021/03/14 10:56:40;;;;;;;10.93;3.60;;;;;;;6.22;63.71;98437.28;6174778;23;20075;-73
2021/03/14 10:59:28;;;;;;;15.32;5.85;;;;;;;6.59;62.63;98431.91;6170743;23;20005;-73
2021/03/14 11:02:22;;;;;;;8.85;3.72;;;;;;;6.67;63.08;98436.13;6170237;23;20452;-73
2021/03/14 11:04:59;;;;;;;13.27;4.07;;;;;;;6.52;62.14;98435.38;6171198;23;20012;-74
2021/03/14 11:07:32;;;;;;;13.25;4.35;;;;;;;6.15;63.58;98435.63;6170751;23;20011;-76
2021/03/14 11:10:09;;;;;;;11.45;3.85;;;;;;;5.93;64.21;98435.72;6171192;23;20004;-77
2021/03/14 11:12:37;;;;;;;13.73;4.32;;;;;;;5.97;62.61;98435.72;6172034;23;20009;-74
2021/03/14 11:15:05;;;;;;;4.82;1.60;;;;;;;6.38;61.28;98438.94;6174754;23;20000;-75
2021/03/14 11:17:34;;;;;;;10.70;2.65;;;;;;;6.78;61.53;98428.31;6176461;23;20012;-74
2021/03/14 11:20:00;;;;;;;13.23;4.03;;;;;;;6.61;61.08;98432.72;6176516;23;20005;-74
2021/03/14 11:22:25;;;;;;;12.60;3.83;;;;;;;7.85;57.08;98427.16;6176198;23;20391;-75
2021/03/14 11:24:51;;;;;;;4.70;1.52;;;;;;;8.48;55.46;98424.59;6176457;23;20357;-75
2021/03/14 11:27:17;;;;;;;3.92;1.30;;;;;;;8.69;53.80;98428.56;6177464;23;20488;-75
2021/03/14 11:29:44;;;;;;;8.45;1.58;;;;;;;7.95;53.94;98428.75;6179452;23;20012;-73
2021/03/14 11:32:11;;;;;;;4.13;1.20;;;;;;;7.67;54.88;98428.25;6178373;23;20009;-73
2021/03/14 11:34:37;;;;;;;4.60;1.20;;;;;;;7.31;54.75;98437.25;6178304;23;20665;-72
2021/03/14 11:37:03;;;;;;;4.05;1.67;;;;;;;7.12;55.93;98443.47;6179533;23;20044;-73
2021/03/14 11:39:29;;;;;;;11.98;2.15;;;;;;;7.00;56.58;98443.56;6179519;23;20004;-73
2021/03/14 11:41:54;;;;;;;1.38;1.27;;;;;;;7.16;54.49;98445.16;6179062;23;20428;-73
2021/03/14 11:44:19;;;;;;;3.55;1.55;;;;;;;7.08;54.55;98437.47;6178971;23;20019;-73
2021/03/14 11:46:45;;;;;;;7.97;1.35;;;;;;;7.16;54.55;98430.53;6178615;23;20005;-74
2021/03/14 11:49:13;;;;;;;2.35;1.17;;;;;;;7.13;54.20;98434.84;6178874;23;20173;-73
2021/03/14 11:51:39;;;;;;;5.93;1.35;;;;;;;7.21;52.58;98433.06;6178874;23;20336;-73
2021/03/14 11:54:04;;;;;;;4.07;1.55;;;;;;;7.23;52.75;98431.31;6178824;23;20012;-73
2021/03/14 11:56:30;;;;;;;5.78;1.40;;;;;;;7.34;54.13;98424.31;6179040;23;20080;-73
2021/03/14 11:58:58;;;;;;;7.85;1.90;;;;;;;7.57;52.54;98420.66;6179515;23;20056;-73
2021/03/14 12:01:25;;;;;;;8.60;1.38;;;;;;;7.65;52.48;98424.00;6179314;23;20001;-73
2021/03/14 12:03:51;;;;;;;6.32;1.40;;;;;;;8.18;51.12;98412.97;6179728;23;20424;-73
2021/03/14 12:06:17;;;;;;;1.92;1.17;;;;;;;8.11;51.53;98407.91;6179651;23;20461;-73
2021/03/14 12:08:42;;;;;;;3.67;1.67;;;;;;;7.50;51.67;98408.72;6179923;23;20005;-73
2021/03/14 12:11:08;;;;;;;3.72;1.08;;;;;;;7.14;52.24;98410.81;6181162;23;20015;-73
2021/03/14 12:13:34;;;;;;;3.65;1.15;;;;;;;7.18;53.77;98418.47;6181399;23;20005;-73
2021/03/14 12:16:00;;;;;;;2.60;1.02;;;;;;;7.15;53.82;98417.66;6181270;23;20343;-73
2021/03/14 12:18:26;;;;;;;10.93;6.28;;;;;;;7.10;53.96;98411.69;6181220;23;20436;-73
2021/03/14 12:20:52;;;;;;;6.30;1.40;;;;;;;6.97;53.17;98420.44;6154545;23;20055;-73
2021/03/14 12:23:17;;;;;;;5.90;1.30;;;;;;;6.87;54.07;98412.78;6181306;23;20028;-73
2021/03/14 12:25:43;;;;;;;2.50;1.33;;;;;;;7.01;54.29;98409.22;6181379;23;20052;-74
2021/03/14 12:28:09;;;;;;;4.13;1.40;;;;;;;7.10;54.76;98407.41;6181334;23;20009;-73
2021/03/14 12:30:34;;;;;;;4.38;1.33;;;;;;;6.90;55.38;98407.59;6181165;23;20008;-73
2021/03/14 12:32:59;;;;;;;6.18;1.95;;;;;;;6.88;56.09;98400.75;6180977;23;20100;-73
2021/03/14 12:35:25;;;;;;;6.18;1.33;;;;;;;6.94;55.20;98398.97;6181272;23;20005;-73
2021/03/14 12:37:50;;;;;;;3.78;1.10;;;;;;;6.73;55.70;98404.34;6181220;23;20062;-73
2021/03/14 12:40:16;;;;;;;4.28;1.20;;;;;;;6.75;56.33;98406.88;6181171;23;20020;-73
2021/03/14 12:42:41;;;;;;;8.75;1.40;;;;;;;6.46;58.12;98409.69;6181123;23;20005;-74
2021/03/14 12:45:07;;;;;;;6.13;1.30;;;;;;;6.25;62.30;98416.72;6154695;23;20012;-73
2021/03/14 12:47:32;;;;;;;5.53;1.17;;;;;;;6.04;63.04;98419.38;6181011;23;20037;-73
2021/03/14 12:50:00;;;;;;;10.70;4.85;;;;;;;6.08;62.71;98421.94;6181243;23;20087;-73
2021/03/14 12:52:27;;;;;;;5.93;1.58;;;;;;;6.12;63.80;98426.19;6180754;23;20028;-74
2021/03/14 12:54:52;;;;;;;6.00;1.48;;;;;;;5.82;64.00;98432.34;6181429;23;20009;-73
2021/03/14 12:57:17;;;;;;;2.33;0.90;;;;;;;6.02;64.49;98434.00;6181289;23;20425;-73
2021/03/14 12:59:43;;;;;;;3.75;1.20;;;;;;;5.93;64.95;98430.59;6181115;23;20380;-74
2021/03/14 13:02:08;;;;;;;4.60;1.25;;;;;;;6.04;64.60;98432.25;6180833;23;20476;-73
2021/03/14 13:04:33;;;;;;;6.07;1.05;;;;;;;6.06;65.31;98430.53;6181195;23;20009;-74
2021/03/14 13:06:59;;;;;;;5.00;1.30;;;;;;;6.09;65.51;98443.38;6180713;23;20005;-73
2021/03/14 13:09:24;;;;;;;4.43;1.13;;;;;;;6.04;65.41;98437.38;6180881;23;20044;-73
2021/03/14 13:11:50;;;;;;;1.35;0.93;;;;;;;6.26;66.10;98444.13;6180549;23;20096;-73
2021/03/14 13:14:15;;;;;;;3.97;1.75;;;;;;;6.40;65.42;98446.63;6180278;23;20352;-73
2021/03/14 13:16:40;;;;;;;1.85;1.15;;;;;;;6.02;66.20;98450.28;6180419;23;20017;-74
2021/03/14 13:19:06;;;;;;;2.30;0.85;;;;;;;6.17;67.13;98450.19;6180483;23;20068;-73
2021/03/14 13:21:31;;;;;;;7.85;3.80;;;;;;;6.04;67.54;98457.97;6180550;23;20001;-73
2021/03/14 13:23:56;;;;;;;1.08;0.75;;;;;;;5.75;68.76;98446.06;6180479;23;20032;-73
2021/03/14 13:26:22;;;;;;;2.42;1.10;;;;;;;5.25;70.91;98466.78;6180741;23;20005;-73
2021/03/14 13:28:47;;;;;;;3.33;1.02;;;;;;;5.07;74.94;98465.09;6180768;23;20016;-73
2021/03/14 13:31:14;;;;;;;6.53;1.55;;;;;;;4.85;76.65;98470.25;6180455;23;20040;-73
2021/03/14 13:33:40;;;;;;;6.18;1.20;;;;;;;4.82;77.39;98462.53;6180988;23;20000;-73
2021/03/14 13:36:06;;;;;;;4.72;1.05;;;;;;;4.72;79.62;98468.53;6179882;23;20012;-73
2021/03/14 13:38:31;;;;;;;4.32;1.20;;;;;;;4.78;79.42;98468.53;6180662;23;20020;-73
2021/03/14 13:40:56;;;;;;;5.40;1.50;;;;;;;4.72;79.76;98458.25;6180457;23;20008;-71
2021/03/14 13:43:23;;;;;;;1.38;1.00;;;;;;;4.53;79.57;98464.25;6181171;23;20048;-71
2021/03/14 13:45:48;;;;;;;1.77;1.08;;;;;;;4.51;79.80;98453.13;6180830;23;20031;-71
2021/03/14 13:48:13;;;;;;;43.75;19.20;;;;;;;4.51;80.33;98455.69;6181147;23;20001;-71
2021/03/14 13:50:39;;;;;;;3.42;2.10;;;;;;;4.52;79.55;98465.09;6180948;23;20034;-71
2021/03/14 13:53:08;;;;;;;0.80;0.80;;;;;;;4.54;78.74;98463.38;6180903;23;20453;-71
2021/03/14 13:55:34;;;;;;;2.63;1.05;;;;;;;4.61;78.95;98470.25;6180466;23;19997;-71
2021/03/14 13:57:59;;;;;;;2.75;0.93;;;;;;;4.64;80.34;98468.53;6180873;23;20008;-71
2021/03/14 14:00:25;;;;;;;7.28;1.00;;;;;;;4.66;80.55;98468.53;6180682;23;20356;-71
2021/03/14 14:02:51;;;;;;;1.30;1.00;;;;;;;4.60;80.79;98471.09;6180772;23;20008;-71
2021/03/14 14:05:16;;;;;;;1.30;0.93;;;;;;;4.46;82.10;98480.50;6181034;23;20001;-71
2021/03/14 14:07:42;;;;;;;3.42;1.05;;;;;;;4.45;80.73;98476.19;6180753;23;20001;-71
2021/03/14 14:10:11;;;;;;;2.17;1.05;;;;;;;4.60;83.00;98478.81;6180817;23;20024;-71
2021/03/14 14:12:36;;;;;;;1.50;0.90;;;;;;;4.47;79.73;98482.19;6180984;23;20096;-71
2021/03/14 14:15:03;;;;;;;2.88;1.20;;;;;;;4.33;80.72;98480.47;6180445;23;20043;-72
2021/03/14 14:17:29;;;;;;;6.03;1.52;;;;;;;4.15;83.68;98485.53;6232974;22;20465;-70
2021/03/14 14:19:54;;;;;;;5.18;1.20;;;;;;;3.85;83.43;98486.28;6240610;23;20004;-70
2021/03/14 14:22:20;;;;;;;2.72;1.13;;;;;;;3.93;81.17;98488.91;6213748;23;20747;-74
2021/03/14 14:24:45;;;;;;;2.17;1.20;;;;;;;3.79;84.28;98487.13;6240739;23;20567;-75
2021/03/14 14:27:10;;;;;;;3.45;1.60;;;;;;;3.79;84.04;98482.00;6217495;23;20005;-75
2021/03/14 14:29:36;;;;;;;3.97;1.38;;;;;;;3.64;86.47;98487.06;6210361;23;20011;-69
2021/03/14 14:32:03;;;;;;;2.65;1.20;;;;;;;3.77;84.29;98483.72;6209852;23;20000;-71
2021/03/14 14:34:28;;;;;;;2.55;1.33;;;;;;;4.05;87.08;98478.66;6210681;23;20423;-74
2021/03/14 14:36:54;;;;;;;6.10;1.95;;;;;;;4.04;85.23;98475.25;6210291;23;20004;-74
2021/03/14 14:39:19;;;;;;;1.77;1.48;;;;;;;4.02;84.08;98478.69;6210290;23;20008;-75
2021/03/14 14:41:48;;;;;;;7.07;3.63;;;;;;;3.98;85.36;98484.63;6210135;23;20001;-74
2021/03/14 14:44:13;;;;;;;6.57;1.75;;;;;;;3.81;87.78;98495.66;6210139;23;20084;-74
2021/03/14 14:46:39;;;;;;;7.53;2.78;;;;;;;3.85;87.15;98497.41;6210466;23;20020;-75
2021/03/14 14:49:04;;;;;;;3.67;1.48;;;;;;;3.92;86.79;98492.31;6209379;23;20004;-75
2021/03/14 14:51:30;;;;;;;1.55;1.10;;;;;;;3.95;87.05;98492.31;6210194;23;20035;-75
2021/03/14 14:53:55;;;;;;;2.85;1.10;;;;;;;3.82;86.67;98492.28;6210066;23;20076;-75
2021/03/14 14:56:21;;;;;;;1.30;1.15;;;;;;;3.89;87.54;98492.28;6210105;23;20031;-75
2021/03/14 14:58:46;;;;;;;3.13;1.10;;;;;;;3.91;87.74;98508.53;6183002;23;20008;-75
2021/03/14 15:01:11;;;;;;;2.97;1.58;;;;;;;3.70;86.80;98512.69;6209683;23;20004;-75
2021/03/14 15:03:37;;;;;;;5.32;2.00;;;;;;;4.03;88.20;98503.47;6210868;23;20001;-75
2021/03/14 15:06:02;;;;;;;2.53;1.50;;;;;;;3.93;87.43;98515.38;6187688;23;20004;-75
2021/03/14 15:08:28;;;;;;;3.92;1.52;;;;;;;3.93;87.71;98524.78;6214309;23;20055;-69
2021/03/14 15:10:54;;;;;;;2.85;1.20;;;;;;;3.82;85.38;98517.00;6214137;23;20031;-69
2021/03/14 15:13:20;;;;;;;5.45;1.85;;;;;;;3.81;86.83;98520.44;6214449;23;20001;-68
2021/03/14 15:15:45;;;;;;;7.68;4.00;;;;;;;3.77;86.82;98524.72;6210100;23;20440;-74
2021/03/14 15:18:11;;;;;;;6.25;2.00;;;;;;;3.55;85.99;98518.59;6208669;23;20005;-78
2021/03/14 15:20:36;;;;;;;4.90;2.10;;;;;;;3.56;87.35;98524.56;6202398;23;20011;-78
2021/03/14 15:23:01;;;;;;;4.57;2.40;;;;;;;3.72;88.38;98521.25;6202273;23;20415;-78
2021/03/14 15:25:27;;;;;;;5.10;2.38;;;;;;;3.70;88.83;98522.94;6176140;23;20019;-78
2021/03/14 15:27:52;;;;;;;6.65;1.95;;;;;;;3.74;87.37;98524.69;6201514;23;20089;-77
2021/03/14 15:30:18;;;;;;;2.50;1.80;;;;;;;3.73;88.85;98525.53;6197145;23;20012;-77
2021/03/14 15:32:45;;;;;;;5.57;2.95;;;;;;;3.82;88.06;98522.13;6194896;23;20100;-77
2021/03/14 15:35:11;;;;;;;4.28;1.85;;;;;;;3.67;87.80;98533.16;6192032;23;20005;-71
2021/03/14 15:37:38;;;;;;;3.50;1.50;;;;;;;3.38;87.20;98537.25;6188484;23;20050;-71
2021/03/14 15:40:05;;;;;;;8.82;5.63;;;;;;;3.29;88.15;98536.38;6162123;23;20087;-71
2021/03/14 15:42:32;;;;;;;5.90;2.35;;;;;;;3.18;89.87;98537.97;6188770;23;20388;-71
2021/03/14 15:44:57;;;;;;;3.95;1.80;;;;;;;3.03;91.12;98535.31;6187918;23;20028;-71
2021/03/14 15:47:24;;;;;;;6.93;2.13;;;;;;;3.23;90.57;98540.56;6186721;23;20009;-71
2021/03/14 15:49:50;;;;;;;4.25;1.80;;;;;;;3.18;90.18;98537.97;6196413;23;20028;-71
2021/03/14 15:52:15;;;;;;;3.83;2.10;;;;;;;3.40;90.29;98540.72;6197294;23;20084;-70
2021/03/14 15:54:40;;;;;;;3.55;2.30;;;;;;;3.43;90.21;98533.03;6198020;23;20004;-71
2021/03/14 15:57:06;;;;;;;6.63;3.00;;;;;;;3.73;90.47;98533.22;6197898;23;20035;-71
2021/03/14 15:59:31;;;;;;;6.25;3.08;;;;;;;3.67;89.08;98533.16;6194845;23;20020;-71
2021/03/14 16:01:57;;;;;;;4.55;2.40;;;;;;;3.77;87.98;98534.06;6174585;23;20044;-71
2021/03/14 16:04:22;;;;;;;13.13;5.53;;;;;;;3.71;88.35;98534.91;6203403;23;20016;-71
2021/03/14 16:06:47;;;;;;;8.43;5.07;;;;;;;3.57;89.29;98531.41;6206399;23;20005;-71
2021/03/14 16:09:13;;;;;;;23.55;8.48;;;;;;;3.60;90.05;98534.84;6179579;23;20012;-70
2021/03/14 16:11:38;;;;;;;50.28;25.20;;;;;;;3.51;90.49;98534.78;6206183;23;20005;-71
2021/03/14 16:14:04;;;;;;;15.27;6.80;;;;;;;3.48;90.26;98532.22;6206033;23;20005;-71
2021/03/14 16:16:31;;;;;;;15.68;5.57;;;;;;;3.30;90.43;98537.22;6205132;23;20035;-70
2021/03/14 16:18:56;;;;;;;11.23;5.43;;;;;;;3.41;91.65;98539.84;6205317;23;20005;-74
2021/03/14 16:21:22;;;;;;;9.13;3.88;;;;;;;3.54;91.90;98544.22;6204405;23;20004;-70
2021/03/14 16:23:47;;;;;;;8.13;3.88;;;;;;;3.63;92.53;98543.38;6203604;23;20087;-71
2021/03/14 16:26:13;;;;;;;5.90;3.63;;;;;;;3.66;91.67;98546.84;6203480;23;20008;-72
2021/03/14 16:28:38;;;;;;;9.45;4.32;;;;;;;3.86;91.38;98550.34;6207451;23;20011;-70
2021/03/14 16:31:04;;;;;;;3.75;3.00;;;;;;;4.03;91.11;98547.03;6209561;23;20012;-70
2021/03/14 16:33:29;;;;;;;4.38;2.90;;;;;;;4.04;90.43;98544.47;6182333;23;20454;-70
2021/03/14 16:35:57;;;;;;;3.50;3.00;;;;;;;4.00;89.93;98536.75;6209583;23;20352;-70
2021/03/14 16:38:23;;;;;;;4.70;3.70;;;;;;;4.05;90.58;98546.16;6209453;23;20358;-70
2021/03/14 16:40:48;;;;;;;8.77;6.13;;;;;;;4.03;91.35;98547.03;6209222;23;20011;-70
2021/03/14 16:43:13;;;;;;;4.18;3.55;;;;;;;4.14;90.59;98540.22;6209397;23;20044;-70
2021/03/14 16:45:39;;;;;;;4.50;3.05;;;;;;;4.17;90.63;98540.25;6209296;23;20020;-70
2021/03/14 16:48:05;;;;;;;6.15;3.92;;;;;;;4.16;90.99;98537.66;6177417;23;20012;-70
2021/03/14 16:50:30;;;;;;;4.55;3.60;;;;;;;4.09;91.55;98541.91;6203483;23;20036;-70
2021/03/14 16:52:55;;;;;;;4.00;3.60;;;;;;;4.26;90.37;98535.16;6202343;23;20012;-69
2021/03/14 16:55:21;;;;;;;5.05;3.38;;;;;;;4.09;90.28;98542.78;6171223;23;20008;-69
2021/03/14 16:57:47;;;;;;;5.53;4.45;;;;;;;4.08;91.81;98545.34;6198534;23;20410;-69
2021/03/14 17:00:18;;;;;;;9.38;6.30;;;;;;;4.10;93.14;98548.75;6198114;23;20028;-69
2021/03/14 17:02:43;;;;;;;8.55;5.85;;;;;;;4.07;92.44;98551.31;6198710;23;20015;-69
2021/03/14 17:05:09;;;;;;;7.47;4.40;;;;;;;4.23;91.29;98550.53;6195000;23;20004;-69
2021/03/14 17:07:35;;;;;;;9.32;6.43;;;;;;;4.20;90.52;98565.03;6193376;23;20062;-69
2021/03/14 17:10:02;;;;;;;10.48;5.95;;;;;;;4.06;91.17;98567.53;6193451;23;20159;-69
2021/03/14 17:12:28;;;;;;;8.32;6.43;;;;;;;3.90;92.50;98561.47;6194324;23;20004;-69
2021/03/14 17:14:53;;;;;;;6.57;5.15;;;;;;;3.69;92.96;98567.34;6192352;23;20011;-69
2021/03/14 17:17:18;;;;;;;10.05;5.95;;;;;;;3.77;91.97;98565.72;6198344;23;20091;-68
2021/03/14 17:19:44;;;;;;;8.38;5.95;;;;;;;3.71;92.34;98575.91;6201326;23;20008;-70
2021/03/14 17:22:10;;;;;;;5.38;4.82;;;;;;;3.97;91.61;98577.78;6175279;23;20099;-70
2021/03/14 17:24:35;;;;;;;6.13;4.43;;;;;;;3.70;91.41;98579.31;6205459;23;20491;-71
2021/03/14 17:27:00;;;;;;;5.82;4.47;;;;;;;3.81;90.59;98581.94;6207664;23;20008;-70
2021/03/14 17:29:26;;;;;;;9.20;5.80;;;;;;;3.86;91.30;98581.09;6179082;23;20008;-70
2021/03/14 17:31:51;;;;;;;6.35;5.25;;;;;;;3.81;92.44;98587.91;6205353;23;20004;-70
2021/03/14 17:34:17;;;;;;;6.63;5.60;;;;;;;3.88;91.30;98599.06;6208301;23;20501;-70
2021/03/14 17:36:42;;;;;;;9.35;5.65;;;;;;;3.89;91.81;98599.94;6210644;23;20483;-70
2021/03/14 17:39:07;;;;;;;6.47;5.72;;;;;;;3.80;93.46;98599.03;6211054;23;20324;-71
2021/03/14 17:41:33;;;;;;;8.40;5.05;;;;;;;3.79;92.91;98597.31;6210555;23;20008;-71
2021/03/14 17:43:58;;;;;;;6.78;5.57;;;;;;;3.79;93.41;98602.44;6184145;23;20016;-71
2021/03/14 17:46:24;;;;;;;6.43;5.80;;;;;;;3.82;93.10;98599.91;6210546;23;20011;-70
2021/03/14 17:48:49;;;;;;;5.93;5.15;;;;;;;3.84;92.91;98602.47;6183484;23;20013;-71
2021/03/14 17:51:14;;;;;;;6.10;5.45;;;;;;;3.69;93.83;98598.09;6210441;23;20009;-70
2021/03/14 17:53:40;;;;;;;6.38;5.78;;;;;;;3.56;93.81;98601.41;6210041;23;20000;-71
2021/03/14 17:56:05;;;;;;;9.48;7.30;;;;;;;3.23;94.16;98602.88;6210395;23;20000;-71
2021/03/14 17:58:31;;;;;;;7.47;5.97;;;;;;;3.22;94.08;98616.53;6206850;23;20004;-71
2021/03/14 18:00:56;;;;;;;7.28;6.57;;;;;;;3.40;93.07;98614.97;6201830;23;20004;-70
2021/03/14 18:03:21;;;;;;;8.60;7.28;;;;;;;3.39;93.20;98623.50;6202789;23;19997;-71
2021/03/14 18:05:47;;;;;;;10.38;7.85;;;;;;;3.06;93.99;98614.69;6201391;23;20440;-71
2021/03/14 18:08:12;;;;;;;8.07;6.70;;;;;;;2.93;94.14;98623.06;6201431;23;20447;-71
2021/03/14 18:10:38;;;;;;;10.18;6.93;;;;;;;2.89;94.79;98629.00;6174849;23;20004;-71
2021/03/14 18:13:04;;;;;;;8.95;7.22;;;;;;;2.97;95.14;98624.81;6201254;23;20389;-71
2021/03/14 18:15:30;;;;;;;9.88;6.57;;;;;;;3.00;95.86;98624.88;6201180;23;20039;-71
2021/03/14 18:17:55;;;;;;;8.38;6.40;;;;;;;2.94;95.82;98624.78;6196821;23;20557;-71
2021/03/14 18:20:20;;;;;;;8.25;6.63;;;;;;;2.89;94.96;98626.44;6189595;23;20107;-72
2021/03/14 18:22:46;;;;;;;8.98;6.72;;;;;;;2.79;93.84;98618.66;6189779;23;20012;-70
2021/03/14 18:25:13;;;;;;;12.27;8.05;;;;;;;2.74;93.87;98622.88;6178204;23;20005;-70
2021/03/14 18:27:40;;;;;;;9.95;7.97;;;;;;;2.66;93.31;98623.63;6180636;23;20776;-70
2021/03/14 18:30:08;;;;;;;11.23;8.10;;;;;;;2.46;94.36;98631.09;6182634;23;20008;-70
2021/03/14 18:32:33;;;;;;;12.30;8.68;;;;;;;2.42;95.35;98637.00;6179289;23;20047;-71
2021/03/14 18:34:59;;;;;;;20.90;11.63;;;;;;;2.41;95.49;98633.59;6172489;23;20008;-71
2021/03/14 18:37:25;;;;;;;39.08;21.00;;;;;;;2.35;95.14;98632.66;6136381;23;20001;-71
2021/03/14 18:39:50;;;;;;;33.28;18.48;;;;;;;2.38;94.40;98622.50;6164136;23;20518;-72
2021/03/14 18:42:15;;;;;;;18.65;12.30;;;;;;;2.39;94.33;98635.28;6160688;23;20004;-73